CheckWX is a tool to help pilots better visualize weather data.  It is not intended as a substitute for an official pre-flight weather briefing.

09:04:05 UTC

KORB METAR
Orr Regional Airport
Orr, Minnesota, USA
Current

11 mins ago

KORB 220853Z AUTO 28005KT 10SM -SN OVC026 M07/M09 A3022 RMK AO2
Observed
Feb-22 @ 08:53 UTC
Wind
  • 280° at 5 KTS
Visibility
10 SM
Flight Rules
MVFR
Conditions
Light Snow
Cloud Levels
  • Overcast at 2,600' AGL
Temperature
-7°C / 19°F
Dewpoint
-9°C / 16°F
Humidity
86%
Altimeter
30.22" Hg
Pressure
1023.42 hPa
Previous

30 mins ago

KORB 220834Z AUTO 28004KT 10SM OVC026 M06/M09 A3022 RMK AO2
Observed
Feb-22 @ 08:34 UTC
Wind
  • 280° at 4 KTS
Visibility
10 SM
Flight Rules
MVFR
Cloud Levels
  • Overcast at 2,600' AGL
Temperature
-6°C / 21°F
Dewpoint
-9°C / 16°F
Humidity
80%
Altimeter
30.22" Hg
Pressure
1023.42 hPa
Previous

50 mins ago

KORB 220814Z AUTO 00000KT 10SM -SN OVC026 M06/M09 A3022 RMK AO2
Observed
Feb-22 @ 08:14 UTC
Visibility
10 SM
Flight Rules
MVFR
Conditions
Light Snow
Cloud Levels
  • Overcast at 2,600' AGL
Temperature
-6°C / 21°F
Dewpoint
-9°C / 16°F
Humidity
80%
Altimeter
30.22" Hg
Pressure
1023.42 hPa